sensor_id;sensor_type;location;lat;lon;timestamp;P1;durP1;ratioP1;P2;durP2;ratioP2
28180;SDS011;15464;50.988;10.318;2022-09-13T00:01:00;6.45;;;5.85;;
28180;SDS011;15464;50.988;10.318;2022-09-13T00:03:26;6.00;;;5.40;;
28180;SDS011;15464;50.988;10.318;2022-09-13T00:05:53;7.72;;;5.55;;
28180;SDS011;15464;50.988;10.318;2022-09-13T00:08:20;5.32;;;4.80;;
28180;SDS011;15464;50.988;10.318;2022-09-13T00:10:47;7.40;;;6.30;;
28180;SDS011;15464;50.988;10.318;2022-09-13T00:13:14;8.75;;;7.50;;
28180;SDS011;15464;50.988;10.318;2022-09-13T00:15:43;7.53;;;6.70;;
28180;SDS011;15464;50.988;10.318;2022-09-13T00:18:11;7.55;;;6.43;;
28180;SDS011;15464;50.988;10.318;2022-09-13T00:20:38;7.93;;;6.45;;
28180;SDS011;15464;50.988;10.318;2022-09-13T00:23:05;7.38;;;6.00;;
28180;SDS011;15464;50.988;10.318;2022-09-13T00:25:31;8.05;;;5.95;;
28180;SDS011;15464;50.988;10.318;2022-09-13T00:27:58;7.45;;;5.82;;
28180;SDS011;15464;50.988;10.318;2022-09-13T00:30:25;7.47;;;6.35;;
28180;SDS011;15464;50.988;10.318;2022-09-13T00:32:51;8.98;;;6.43;;
28180;SDS011;15464;50.988;10.318;2022-09-13T00:35:18;7.53;;;6.13;;
28180;SDS011;15464;50.988;10.318;2022-09-13T00:37:44;7.38;;;5.55;;
28180;SDS011;15464;50.988;10.318;2022-09-13T00:40:11;7.25;;;6.20;;
28180;SDS011;15464;50.988;10.318;2022-09-13T00:42:37;6.28;;;5.45;;
28180;SDS011;15464;50.988;10.318;2022-09-13T00:52:50;5.80;;;5.18;;
28180;SDS011;15464;50.988;10.318;2022-09-13T00:55:30;7.18;;;5.80;;
28180;SDS011;15464;50.988;10.318;2022-09-13T00:58:01;7.35;;;5.50;;
28180;SDS011;15464;50.988;10.318;2022-09-13T01:00:33;7.95;;;5.85;;
28180;SDS011;15464;50.988;10.318;2022-09-13T01:03:02;6.05;;;5.43;;
28180;SDS011;15464;50.988;10.318;2022-09-13T01:05:33;10.02;;;5.55;;
28180;SDS011;15464;50.988;10.318;2022-09-13T01:08:04;6.93;;;5.25;;
28180;SDS011;15464;50.988;10.318;2022-09-13T01:10:37;6.00;;;5.40;;
28180;SDS011;15464;50.988;10.318;2022-09-13T01:13:13;7.05;;;5.93;;
28180;SDS011;15464;50.988;10.318;2022-09-13T01:15:43;8.00;;;5.78;;
28180;SDS011;15464;50.988;10.318;2022-09-13T01:18:11;8.57;;;6.57;;
28180;SDS011;15464;50.988;10.318;2022-09-13T01:37:28;8.43;;;5.80;;
28180;SDS011;15464;50.988;10.318;2022-09-13T01:40:11;7.60;;;5.70;;
28180;SDS011;15464;50.988;10.318;2022-09-13T01:48:08;6.68;;;6.05;;
28180;SDS011;15464;50.988;10.318;2022-09-13T01:50:41;7.60;;;5.50;;
28180;SDS011;15464;50.988;10.318;2022-09-13T01:55:59;7.97;;;6.53;;
28180;SDS011;15464;50.988;10.318;2022-09-13T02:01:09;7.93;;;6.05;;
28180;SDS011;15464;50.988;10.318;2022-09-13T02:04:20;6.80;;;6.10;;
28180;SDS011;15464;50.988;10.318;2022-09-13T02:06:51;7.72;;;5.85;;
28180;SDS011;15464;50.988;10.318;2022-09-13T02:09:26;8.10;;;5.90;;
28180;SDS011;15464;50.988;10.318;2022-09-13T02:11:59;7.35;;;5.88;;
28180;SDS011;15464;50.988;10.318;2022-09-13T02:14:33;6.60;;;5.95;;
28180;SDS011;15464;50.988;10.318;2022-09-13T02:17:12;6.57;;;5.68;;
28180;SDS011;15464;50.988;10.318;2022-09-13T02:19:49;9.68;;;6.32;;
28180;SDS011;15464;50.988;10.318;2022-09-13T02:22:17;7.22;;;6.18;;
28180;SDS011;15464;50.988;10.318;2022-09-13T02:24:50;7.10;;;6.07;;
28180;SDS011;15464;50.988;10.318;2022-09-13T02:27:26;6.65;;;5.95;;
28180;SDS011;15464;50.988;10.318;2022-09-13T02:29:59;8.63;;;6.22;;
28180;SDS011;15464;50.988;10.318;2022-09-13T02:32:31;8.38;;;6.45;;
28180;SDS011;15464;50.988;10.318;2022-09-13T02:35:05;8.27;;;6.25;;
28180;SDS011;15464;50.988;10.318;2022-09-13T02:37:36;7.18;;;6.20;;
28180;SDS011;15464;50.988;10.318;2022-09-13T02:40:07;8.23;;;7.30;;
28180;SDS011;15464;50.988;10.318;2022-09-13T02:42:43;7.07;;;6.13;;
28180;SDS011;15464;50.988;10.318;2022-09-13T02:45:15;6.93;;;5.72;;
28180;SDS011;15464;50.988;10.318;2022-09-13T02:47:52;8.70;;;6.25;;
28180;SDS011;15464;50.988;10.318;2022-09-13T02:53:09;6.68;;;5.90;;
28180;SDS011;15464;50.988;10.318;2022-09-13T02:58:31;7.88;;;6.13;;
28180;SDS011;15464;50.988;10.318;2022-09-13T03:01:08;10.85;;;6.72;;
28180;SDS011;15464;50.988;10.318;2022-09-13T03:03:34;7.72;;;5.97;;
28180;SDS011;15464;50.988;10.318;2022-09-13T03:06:02;7.00;;;5.45;;
28180;SDS011;15464;50.988;10.318;2022-09-13T03:08:28;9.07;;;5.75;;
28180;SDS011;15464;50.988;10.318;2022-09-13T03:11:02;8.00;;;5.55;;
28180;SDS011;15464;50.988;10.318;2022-09-13T03:22:39;6.97;;;6.25;;
28180;SDS011;15464;50.988;10.318;2022-09-13T03:30:17;7.82;;;6.53;;
28180;SDS011;15464;50.988;10.318;2022-09-13T03:32:47;7.80;;;6.60;;
28180;SDS011;15464;50.988;10.318;2022-09-13T03:35:17;8.25;;;7.10;;
28180;SDS011;15464;50.988;10.318;2022-09-13T03:43:17;6.03;;;5.43;;
28180;SDS011;15464;50.988;10.318;2022-09-13T03:45:52;7.32;;;6.63;;
28180;SDS011;15464;50.988;10.318;2022-09-13T03:48:22;10.48;;;7.05;;
28180;SDS011;15464;50.988;10.318;2022-09-13T03:50:49;7.45;;;6.68;;
28180;SDS011;15464;50.988;10.318;2022-09-13T03:53:18;8.90;;;6.53;;
28180;SDS011;15464;50.988;10.318;2022-09-13T03:55:48;9.80;;;7.35;;
28180;SDS011;15464;50.988;10.318;2022-09-13T03:58:16;7.60;;;6.80;;
28180;SDS011;15464;50.988;10.318;2022-09-13T04:00:44;7.90;;;7.10;;
28180;SDS011;15464;50.988;10.318;2022-09-13T04:03:11;12.10;;;7.32;;
28180;SDS011;15464;50.988;10.318;2022-09-13T04:05:39;9.23;;;6.50;;
28180;SDS011;15464;50.988;10.318;2022-09-13T04:08:06;8.35;;;7.10;;
28180;SDS011;15464;50.988;10.318;2022-09-13T04:10:34;7.78;;;7.05;;
28180;SDS011;15464;50.988;10.318;2022-09-13T04:13:03;6.88;;;6.25;;
28180;SDS011;15464;50.988;10.318;2022-09-13T04:15:30;8.77;;;6.60;;
28180;SDS011;15464;50.988;10.318;2022-09-13T04:17:57;9.02;;;6.72;;
28180;SDS011;15464;50.988;10.318;2022-09-13T04:20:23;7.47;;;6.07;;
28180;SDS011;15464;50.988;10.318;2022-09-13T04:22:51;8.50;;;6.72;;
28180;SDS011;15464;50.988;10.318;2022-09-13T04:25:18;7.93;;;5.85;;
28180;SDS011;15464;50.988;10.318;2022-09-13T04:27:47;7.87;;;7.00;;
28180;SDS011;15464;50.988;10.318;2022-09-13T04:30:14;8.30;;;6.63;;
28180;SDS011;15464;50.988;10.318;2022-09-13T04:32:41;10.07;;;6.90;;
28180;SDS011;15464;50.988;10.318;2022-09-13T04:35:09;8.00;;;6.63;;
28180;SDS011;15464;50.988;10.318;2022-09-13T04:37:37;8.15;;;6.72;;
28180;SDS011;15464;50.988;10.318;2022-09-13T04:40:04;7.13;;;6.30;;
28180;SDS011;15464;50.988;10.318;2022-09-13T04:42:35;10.25;;;6.82;;
28180;SDS011;15464;50.988;10.318;2022-09-13T04:45:03;8.25;;;7.45;;
28180;SDS011;15464;50.988;10.318;2022-09-13T04:47:31;9.60;;;7.57;;
28180;SDS011;15464;50.988;10.318;2022-09-13T04:49:58;9.65;;;7.75;;
28180;SDS011;15464;50.988;10.318;2022-09-13T04:52:24;12.60;;;8.18;;
28180;SDS011;15464;50.988;10.318;2022-09-13T04:54:51;8.55;;;7.55;;
28180;SDS011;15464;50.988;10.318;2022-09-13T04:57:18;8.25;;;7.35;;
28180;SDS011;15464;50.988;10.318;2022-09-13T04:59:44;9.15;;;7.43;;
28180;SDS011;15464;50.988;10.318;2022-09-13T05:02:11;8.43;;;6.78;;
28180;SDS011;15464;50.988;10.318;2022-09-13T05:04:37;8.60;;;7.60;;
28180;SDS011;15464;50.988;10.318;2022-09-13T05:07:04;8.50;;;7.20;;
28180;SDS011;15464;50.988;10.318;2022-09-13T05:09:30;8.40;;;7.60;;
28180;SDS011;15464;50.988;10.318;2022-09-13T05:11:57;7.47;;;6.78;;
28180;SDS011;15464;50.988;10.318;2022-09-13T05:14:23;8.27;;;7.47;;
28180;SDS011;15464;50.988;10.318;2022-09-13T05:16:50;8.25;;;7.20;;
28180;SDS011;15464;50.988;10.318;2022-09-13T05:19:17;10.93;;;7.78;;
28180;SDS011;15464;50.988;10.318;2022-09-13T05:21:44;7.72;;;6.65;;
28180;SDS011;15464;50.988;10.318;2022-09-13T05:24:10;9.93;;;8.43;;
28180;SDS011;15464;50.988;10.318;2022-09-13T05:26:37;8.30;;;7.15;;
28180;SDS011;15464;50.988;10.318;2022-09-13T05:29:04;10.10;;;7.60;;
28180;SDS011;15464;50.988;10.318;2022-09-13T05:31:32;10.52;;;8.20;;
28180;SDS011;15464;50.988;10.318;2022-09-13T05:34:02;9.27;;;7.82;;
28180;SDS011;15464;50.988;10.318;2022-09-13T05:36:40;10.73;;;8.63;;
28180;SDS011;15464;50.988;10.318;2022-09-13T05:39:07;9.00;;;7.55;;
28180;SDS011;15464;50.988;10.318;2022-09-13T05:41:58;12.88;;;9.40;;
28180;SDS011;15464;50.988;10.318;2022-09-13T05:44:25;8.15;;;7.35;;
28180;SDS011;15464;50.988;10.318;2022-09-13T05:46:51;7.55;;;6.75;;
28180;SDS011;15464;50.988;10.318;2022-09-13T05:49:18;8.48;;;7.00;;
28180;SDS011;15464;50.988;10.318;2022-09-13T05:51:44;12.95;;;9.13;;
28180;SDS011;15464;50.988;10.318;2022-09-13T05:54:11;8.73;;;7.57;;
28180;SDS011;15464;50.988;10.318;2022-09-13T05:56:38;10.88;;;6.82;;
28180;SDS011;15464;50.988;10.318;2022-09-13T05:59:05;9.15;;;7.05;;
28180;SDS011;15464;50.988;10.318;2022-09-13T06:01:31;8.15;;;6.80;;
28180;SDS011;15464;50.988;10.318;2022-09-13T06:03:58;8.45;;;7.57;;
28180;SDS011;15464;50.988;10.318;2022-09-13T06:06:25;13.98;;;8.52;;
28180;SDS011;15464;50.988;10.318;2022-09-13T06:08:55;8.27;;;7.47;;
28180;SDS011;15464;50.988;10.318;2022-09-13T06:11:23;7.43;;;6.70;;
28180;SDS011;15464;50.988;10.318;2022-09-13T06:13:51;8.13;;;7.30;;
28180;SDS011;15464;50.988;10.318;2022-09-13T06:16:19;8.00;;;7.22;;
28180;SDS011;15464;50.988;10.318;2022-09-13T06:18:45;7.32;;;6.63;;
28180;SDS011;15464;50.988;10.318;2022-09-13T06:21:16;8.65;;;6.75;;
28180;SDS011;15464;50.988;10.318;2022-09-13T06:23:45;12.82;;;6.28;;
28180;SDS011;15464;50.988;10.318;2022-09-13T06:26:14;7.22;;;6.50;;
28180;SDS011;15464;50.988;10.318;2022-09-13T06:28:42;8.45;;;6.75;;
28180;SDS011;15464;50.988;10.318;2022-09-13T06:31:09;8.80;;;6.93;;
28180;SDS011;15464;50.988;10.318;2022-09-13T06:33:39;11.23;;;7.05;;
28180;SDS011;15464;50.988;10.318;2022-09-13T06:36:17;10.57;;;7.32;;
28180;SDS011;15464;50.988;10.318;2022-09-13T06:38:45;8.93;;;6.97;;
28180;SDS011;15464;50.988;10.318;2022-09-13T06:41:15;9.88;;;7.65;;
28180;SDS011;15464;50.988;10.318;2022-09-13T06:43:44;7.75;;;6.97;;
28180;SDS011;15464;50.988;10.318;2022-09-13T06:46:11;12.80;;;8.02;;
28180;SDS011;15464;50.988;10.318;2022-09-13T06:48:49;7.43;;;6.73;;
28180;SDS011;15464;50.988;10.318;2022-09-13T06:51:17;13.35;;;8.13;;
28180;SDS011;15464;50.988;10.318;2022-09-13T06:53:45;10.77;;;7.63;;
28180;SDS011;15464;50.988;10.318;2022-09-13T06:56:18;8.38;;;7.45;;
28180;SDS011;15464;50.988;10.318;2022-09-13T06:58:46;8.90;;;6.28;;
28180;SDS011;15464;50.988;10.318;2022-09-13T07:04:02;11.82;;;6.72;;
28180;SDS011;15464;50.988;10.318;2022-09-13T07:06:31;7.25;;;6.55;;
28180;SDS011;15464;50.988;10.318;2022-09-13T07:09:00;6.88;;;5.72;;
28180;SDS011;15464;50.988;10.318;2022-09-13T07:11:30;10.73;;;5.93;;
28180;SDS011;15464;50.988;10.318;2022-09-13T07:16:27;7.05;;;5.82;;
28180;SDS011;15464;50.988;10.318;2022-09-13T07:18:58;10.95;;;7.10;;
28180;SDS011;15464;50.988;10.318;2022-09-13T07:21:27;6.65;;;5.90;;
28180;SDS011;15464;50.988;10.318;2022-09-13T07:23:54;6.65;;;5.90;;
28180;SDS011;15464;50.988;10.318;2022-09-13T07:26:22;6.18;;;5.63;;
28180;SDS011;15464;50.988;10.318;2022-09-13T07:28:50;5.63;;;5.13;;
28180;SDS011;15464;50.988;10.318;2022-09-13T07:31:33;5.22;;;4.40;;
28180;SDS011;15464;50.988;10.318;2022-09-13T07:34:13;6.05;;;4.90;;
28180;SDS011;15464;50.988;10.318;2022-09-13T07:36:41;5.00;;;4.55;;
28180;SDS011;15464;50.988;10.318;2022-09-13T07:39:08;5.18;;;4.78;;
28180;SDS011;15464;50.988;10.318;2022-09-13T07:41:40;5.60;;;4.70;;
28180;SDS011;15464;50.988;10.318;2022-09-13T07:44:10;6.63;;;4.90;;
28180;SDS011;15464;50.988;10.318;2022-09-13T07:46:38;8.05;;;4.55;;
28180;SDS011;15464;50.988;10.318;2022-09-13T07:49:06;6.60;;;4.37;;
28180;SDS011;15464;50.988;10.318;2022-09-13T07:51:36;4.85;;;4.30;;
28180;SDS011;15464;50.988;10.318;2022-09-13T07:54:09;5.00;;;4.60;;
28180;SDS011;15464;50.988;10.318;2022-09-13T07:56:38;5.10;;;4.70;;
28180;SDS011;15464;50.988;10.318;2022-09-13T07:59:06;5.28;;;4.60;;
28180;SDS011;15464;50.988;10.318;2022-09-13T08:01:38;4.43;;;3.85;;
28180;SDS011;15464;50.988;10.318;2022-09-13T08:06:38;6.32;;;4.40;;
28180;SDS011;15464;50.988;10.318;2022-09-13T08:09:06;6.18;;;4.95;;
28180;SDS011;15464;50.988;10.318;2022-09-13T08:14:06;6.55;;;4.47;;
28180;SDS011;15464;50.988;10.318;2022-09-13T08:16:35;5.35;;;4.85;;
28180;SDS011;15464;50.988;10.318;2022-09-13T08:19:02;5.05;;;4.65;;
28180;SDS011;15464;50.988;10.318;2022-09-13T08:21:33;6.47;;;4.55;;
28180;SDS011;15464;50.988;10.318;2022-09-13T08:24:02;4.90;;;4.18;;
28180;SDS011;15464;50.988;10.318;2022-09-13T08:26:31;5.03;;;4.53;;
28180;SDS011;15464;50.988;10.318;2022-09-13T08:28:59;5.22;;;4.30;;
28180;SDS011;15464;50.988;10.318;2022-09-13T08:31:27;8.75;;;4.20;;
28180;SDS011;15464;50.988;10.318;2022-09-13T08:33:55;4.90;;;3.92;;
28180;SDS011;15464;50.988;10.318;2022-09-13T08:36:23;4.78;;;4.28;;
28180;SDS011;15464;50.988;10.318;2022-09-13T08:38:51;4.60;;;4.18;;
28180;SDS011;15464;50.988;10.318;2022-09-13T08:44:12;4.38;;;3.97;;
28180;SDS011;15464;50.988;10.318;2022-09-13T08:46:48;4.53;;;4.13;;
28180;SDS011;15464;50.988;10.318;2022-09-13T08:49:20;6.63;;;4.35;;
28180;SDS011;15464;50.988;10.318;2022-09-13T08:51:58;4.38;;;4.03;;
28180;SDS011;15464;50.988;10.318;2022-09-13T08:54:38;4.45;;;4.05;;
28180;SDS011;15464;50.988;10.318;2022-09-13T08:57:38;7.30;;;4.20;;
28180;SDS011;15464;50.988;10.318;2022-09-13T09:00:37;3.83;;;3.53;;
28180;SDS011;15464;50.988;10.318;2022-09-13T09:03:15;4.50;;;3.72;;
28180;SDS011;15464;50.988;10.318;2022-09-13T09:05:45;4.63;;;4.18;;
28180;SDS011;15464;50.988;10.318;2022-09-13T09:08:20;4.10;;;3.72;;
28180;SDS011;15464;50.988;10.318;2022-09-13T09:10:57;5.82;;;4.07;;
28180;SDS011;15464;50.988;10.318;2022-09-13T09:13:29;5.20;;;4.00;;
28180;SDS011;15464;50.988;10.318;2022-09-13T09:16:01;4.40;;;4.00;;
28180;SDS011;15464;50.988;10.318;2022-09-13T09:18:42;4.32;;;3.92;;
28180;SDS011;15464;50.988;10.318;2022-09-13T09:21:19;5.53;;;3.47;;
28180;SDS011;15464;50.988;10.318;2022-09-13T09:23:50;4.05;;;3.65;;
28180;SDS011;15464;50.988;10.318;2022-09-13T09:29:31;3.70;;;3.38;;
28180;SDS011;15464;50.988;10.318;2022-09-13T09:37:27;4.32;;;3.20;;
28180;SDS011;15464;50.988;10.318;2022-09-13T09:39:58;3.60;;;3.30;;
28180;SDS011;15464;50.988;10.318;2022-09-13T09:42:36;5.15;;;3.35;;
28180;SDS011;15464;50.988;10.318;2022-09-13T09:47:53;3.95;;;3.28;;
28180;SDS011;15464;50.988;10.318;2022-09-13T09:50:25;6.70;;;3.33;;
28180;SDS011;15464;50.988;10.318;2022-09-13T09:53:03;4.38;;;3.05;;
28180;SDS011;15464;50.988;10.318;2022-09-13T09:55:36;2.75;;;2.55;;
28180;SDS011;15464;50.988;10.318;2022-09-13T09:58:12;3.63;;;2.90;;
28180;SDS011;15464;50.988;10.318;2022-09-13T10:00:52;3.45;;;3.15;;
28180;SDS011;15464;50.988;10.318;2022-09-13T10:03:24;3.17;;;2.90;;
28180;SDS011;15464;50.988;10.318;2022-09-13T10:06:03;4.75;;;2.90;;
28180;SDS011;15464;50.988;10.318;2022-09-13T10:08:32;3.92;;;3.45;;
28180;SDS011;15464;50.988;10.318;2022-09-13T10:11:00;3.50;;;3.20;;
28180;SDS011;15464;50.988;10.318;2022-09-13T10:13:27;3.33;;;3.13;;
28180;SDS011;15464;50.988;10.318;2022-09-13T10:15:58;3.90;;;3.13;;
28180;SDS011;15464;50.988;10.318;2022-09-13T10:18:28;4.32;;;3.08;;
28180;SDS011;15464;50.988;10.318;2022-09-13T10:23:45;4.53;;;3.38;;
28180;SDS011;15464;50.988;10.318;2022-09-13T10:28:45;3.58;;;3.17;;
28180;SDS011;15464;50.988;10.318;2022-09-13T10:31:26;3.65;;;3.10;;
28180;SDS011;15464;50.988;10.318;2022-09-13T10:39:52;3.50;;;3.20;;
28180;SDS011;15464;50.988;10.318;2022-09-13T10:42:34;3.08;;;2.85;;
28180;SDS011;15464;50.988;10.318;2022-09-13T10:45:05;4.10;;;2.70;;
28180;SDS011;15464;50.988;10.318;2022-09-13T10:47:38;4.05;;;3.10;;
28180;SDS011;15464;50.988;10.318;2022-09-13T10:50:21;5.60;;;3.10;;
28180;SDS011;15464;50.988;10.318;2022-09-13T10:52:50;3.42;;;2.78;;
28180;SDS011;15464;50.988;10.318;2022-09-13T10:57:45;2.67;;;2.47;;
28180;SDS011;15464;50.988;10.318;2022-09-13T11:00:17;2.92;;;2.67;;
28180;SDS011;15464;50.988;10.318;2022-09-13T11:10:56;2.50;;;2.30;;
28180;SDS011;15464;50.988;10.318;2022-09-13T11:33:42;6.55;;;2.72;;
28180;SDS011;15464;50.988;10.318;2022-09-13T11:41:45;3.20;;;2.70;;
28180;SDS011;15464;50.988;10.318;2022-09-13T11:48:06;2.70;;;2.37;;
28180;SDS011;15464;50.988;10.318;2022-09-13T11:55:42;2.45;;;2.25;;
28180;SDS011;15464;50.988;10.318;2022-09-13T11:58:22;2.50;;;2.20;;
28180;SDS011;15464;50.988;10.318;2022-09-13T12:00:52;3.03;;;2.53;;
28180;SDS011;15464;50.988;10.318;2022-09-13T12:03:33;2.75;;;2.15;;
28180;SDS011;15464;50.988;10.318;2022-09-13T12:06:41;2.10;;;1.40;;
28180;SDS011;15464;50.988;10.318;2022-09-13T12:09:15;2.83;;;1.80;;
28180;SDS011;15464;50.988;10.318;2022-09-13T12:12:05;2.25;;;1.52;;
28180;SDS011;15464;50.988;10.318;2022-09-13T12:14:41;1.85;;;1.40;;
28180;SDS011;15464;50.988;10.318;2022-09-13T12:17:22;1.23;;;1.13;;
28180;SDS011;15464;50.988;10.318;2022-09-13T12:19:53;2.20;;;1.17;;
28180;SDS011;15464;50.988;10.318;2022-09-13T12:22:23;1.92;;;1.25;;
28180;SDS011;15464;50.988;10.318;2022-09-13T12:24:57;1.77;;;1.23;;
28180;SDS011;15464;50.988;10.318;2022-09-13T12:27:48;1.30;;;1.00;;
28180;SDS011;15464;50.988;10.318;2022-09-13T12:30:22;1.00;;;0.85;;
28180;SDS011;15464;50.988;10.318;2022-09-13T12:32:56;1.85;;;0.93;;
28180;SDS011;15464;50.988;10.318;2022-09-13T12:35:28;1.02;;;0.88;;
28180;SDS011;15464;50.988;10.318;2022-09-13T12:38:15;2.40;;;1.08;;
28180;SDS011;15464;50.988;10.318;2022-09-13T12:46:29;1.73;;;0.82;;
28180;SDS011;15464;50.988;10.318;2022-09-13T13:01:16;1.98;;;0.70;;
28180;SDS011;15464;50.988;10.318;2022-09-13T13:09:29;2.30;;;1.00;;
28180;SDS011;15464;50.988;10.318;2022-09-13T13:14:55;2.35;;;1.17;;
28180;SDS011;15464;50.988;10.318;2022-09-13T13:34:37;1.65;;;1.23;;
28180;SDS011;15464;50.988;10.318;2022-09-13T14:10:53;1.58;;;1.27;;
28180;SDS011;15464;50.988;10.318;2022-09-13T14:18:39;2.85;;;1.30;;
28180;SDS011;15464;50.988;10.318;2022-09-13T14:21:17;1.15;;;1.05;;
28180;SDS011;15464;50.988;10.318;2022-09-13T14:23:47;1.40;;;1.10;;
28180;SDS011;15464;50.988;10.318;2022-09-13T14:26:14;1.40;;;1.20;;
28180;SDS011;15464;50.988;10.318;2022-09-13T14:28:41;1.88;;;1.33;;
28180;SDS011;15464;50.988;10.318;2022-09-13T14:31:13;1.30;;;1.20;;
28180;SDS011;15464;50.988;10.318;2022-09-13T14:33:42;1.60;;;1.20;;
28180;SDS011;15464;50.988;10.318;2022-09-13T14:36:17;1.70;;;1.30;;
28180;SDS011;15464;50.988;10.318;2022-09-13T14:38:46;1.50;;;1.08;;
28180;SDS011;15464;50.988;10.318;2022-09-13T14:41:21;1.27;;;1.10;;
28180;SDS011;15464;50.988;10.318;2022-09-13T14:44:07;1.45;;;1.20;;
28180;SDS011;15464;50.988;10.318;2022-09-13T14:47:12;1.98;;;1.20;;
28180;SDS011;15464;50.988;10.318;2022-09-13T14:50:06;1.52;;;1.40;;
28180;SDS011;15464;50.988;10.318;2022-09-13T14:52:50;2.78;;;1.20;;
28180;SDS011;15464;50.988;10.318;2022-09-13T14:55:25;1.63;;;1.13;;
28180;SDS011;15464;50.988;10.318;2022-09-13T14:57:59;3.88;;;1.30;;
28180;SDS011;15464;50.988;10.318;2022-09-13T15:00:30;1.63;;;1.27;;
28180;SDS011;15464;50.988;10.318;2022-09-13T15:03:02;2.28;;;1.60;;
28180;SDS011;15464;50.988;10.318;2022-09-13T15:05:36;1.85;;;1.20;;
28180;SDS011;15464;50.988;10.318;2022-09-13T15:10:59;3.95;;;1.65;;
28180;SDS011;15464;50.988;10.318;2022-09-13T15:13:27;1.90;;;1.45;;
28180;SDS011;15464;50.988;10.318;2022-09-13T15:15:54;1.33;;;1.23;;
28180;SDS011;15464;50.988;10.318;2022-09-13T15:18:28;1.10;;;1.00;;
28180;SDS011;15464;50.988;10.318;2022-09-13T15:21:05;1.27;;;1.10;;
28180;SDS011;15464;50.988;10.318;2022-09-13T15:23:40;2.30;;;1.30;;
28180;SDS011;15464;50.988;10.318;2022-09-13T15:26:22;2.30;;;1.15;;
28180;SDS011;15464;50.988;10.318;2022-09-13T15:28:53;2.00;;;1.13;;
28180;SDS011;15464;50.988;10.318;2022-09-13T15:31:29;4.75;;;1.38;;
28180;SDS011;15464;50.988;10.318;2022-09-13T15:36:43;3.03;;;1.10;;
28180;SDS011;15464;50.988;10.318;2022-09-13T15:39:14;3.33;;;1.08;;
28180;SDS011;15464;50.988;10.318;2022-09-13T15:41:54;3.83;;;0.90;;
28180;SDS011;15464;50.988;10.318;2022-09-13T15:44:22;2.45;;;1.00;;
28180;SDS011;15464;50.988;10.318;2022-09-13T15:46:54;2.05;;;0.98;;
28180;SDS011;15464;50.988;10.318;2022-09-13T15:49:22;2.15;;;0.90;;
28180;SDS011;15464;50.988;10.318;2022-09-13T15:51:56;1.15;;;0.90;;
28180;SDS011;15464;50.988;10.318;2022-09-13T15:54:32;4.97;;;1.00;;
28180;SDS011;15464;50.988;10.318;2022-09-13T15:57:04;1.00;;;0.85;;
28180;SDS011;15464;50.988;10.318;2022-09-13T15:59:32;1.92;;;0.90;;
28180;SDS011;15464;50.988;10.318;2022-09-13T16:02:15;2.65;;;1.25;;
28180;SDS011;15464;50.988;10.318;2022-09-13T16:04:47;2.33;;;1.63;;
28180;SDS011;15464;50.988;10.318;2022-09-13T16:07:14;2.60;;;1.48;;
28180;SDS011;15464;50.988;10.318;2022-09-13T16:09:41;2.90;;;1.67;;
28180;SDS011;15464;50.988;10.318;2022-09-13T16:12:09;3.50;;;1.27;;
28180;SDS011;15464;50.988;10.318;2022-09-13T16:14:36;3.88;;;2.08;;
28180;SDS011;15464;50.988;10.318;2022-09-13T16:17:05;2.63;;;1.52;;
28180;SDS011;15464;50.988;10.318;2022-09-13T16:19:35;2.42;;;1.50;;
28180;SDS011;15464;50.988;10.318;2022-09-13T16:22:02;1.40;;;1.30;;
28180;SDS011;15464;50.988;10.318;2022-09-13T16:24:28;2.55;;;1.50;;
28180;SDS011;15464;50.988;10.318;2022-09-13T16:26:58;2.55;;;1.35;;
28180;SDS011;15464;50.988;10.318;2022-09-13T16:29:26;1.40;;;1.23;;
28180;SDS011;15464;50.988;10.318;2022-09-13T16:31:53;2.08;;;1.45;;
28180;SDS011;15464;50.988;10.318;2022-09-13T16:34:20;4.45;;;1.58;;
28180;SDS011;15464;50.988;10.318;2022-09-13T16:36:47;5.03;;;1.65;;
28180;SDS011;15464;50.988;10.318;2022-09-13T16:39:13;1.85;;;1.60;;
28180;SDS011;15464;50.988;10.318;2022-09-13T16:41:40;3.45;;;1.60;;
28180;SDS011;15464;50.988;10.318;2022-09-13T16:44:06;2.65;;;1.50;;
28180;SDS011;15464;50.988;10.318;2022-09-13T16:46:34;1.58;;;1.42;;
28180;SDS011;15464;50.988;10.318;2022-09-13T16:49:00;1.70;;;1.38;;
28180;SDS011;15464;50.988;10.318;2022-09-13T16:51:27;2.47;;;1.50;;
28180;SDS011;15464;50.988;10.318;2022-09-13T16:53:53;3.33;;;1.60;;
28180;SDS011;15464;50.988;10.318;2022-09-13T16:56:22;2.20;;;1.70;;
28180;SDS011;15464;50.988;10.318;2022-09-13T16:58:50;3.03;;;1.70;;
28180;SDS011;15464;50.988;10.318;2022-09-13T17:01:25;3.30;;;1.60;;
28180;SDS011;15464;50.988;10.318;2022-09-13T17:03:53;2.05;;;1.60;;
28180;SDS011;15464;50.988;10.318;2022-09-13T17:06:23;2.58;;;1.90;;
28180;SDS011;15464;50.988;10.318;2022-09-13T17:09:00;1.83;;;1.40;;
28180;SDS011;15464;50.988;10.318;2022-09-13T17:11:29;3.78;;;1.60;;
28180;SDS011;15464;50.988;10.318;2022-09-13T17:13:58;1.63;;;1.50;;
28180;SDS011;15464;50.988;10.318;2022-09-13T17:16:27;2.77;;;1.50;;
28180;SDS011;15464;50.988;10.318;2022-09-13T17:18:57;1.90;;;1.60;;
28180;SDS011;15464;50.988;10.318;2022-09-13T17:21:25;2.72;;;1.67;;
28180;SDS011;15464;50.988;10.318;2022-09-13T17:23:53;1.65;;;1.55;;
28180;SDS011;15464;50.988;10.318;2022-09-13T17:26:21;3.03;;;1.85;;
28180;SDS011;15464;50.988;10.318;2022-09-13T17:28:48;4.07;;;1.75;;
28180;SDS011;15464;50.988;10.318;2022-09-13T17:31:14;2.72;;;1.85;;
28180;SDS011;15464;50.988;10.318;2022-09-13T17:33:41;2.90;;;1.80;;
28180;SDS011;15464;50.988;10.318;2022-09-13T17:36:10;2.90;;;1.92;;
28180;SDS011;15464;50.988;10.318;2022-09-13T17:38:39;3.35;;;1.98;;
28180;SDS011;15464;50.988;10.318;2022-09-13T17:41:13;3.58;;;1.80;;
28180;SDS011;15464;50.988;10.318;2022-09-13T17:43:41;4.57;;;1.70;;
28180;SDS011;15464;50.988;10.318;2022-09-13T17:46:10;2.60;;;1.60;;
28180;SDS011;15464;50.988;10.318;2022-09-13T17:48:41;3.70;;;2.08;;
28180;SDS011;15464;50.988;10.318;2022-09-13T17:51:09;3.35;;;1.98;;
28180;SDS011;15464;50.988;10.318;2022-09-13T17:53:38;5.88;;;1.90;;
28180;SDS011;15464;50.988;10.318;2022-09-13T17:56:07;2.72;;;1.90;;
28180;SDS011;15464;50.988;10.318;2022-09-13T17:58:34;2.53;;;1.73;;
28180;SDS011;15464;50.988;10.318;2022-09-13T18:03:32;3.33;;;2.20;;
28180;SDS011;15464;50.988;10.318;2022-09-13T18:05:59;2.72;;;2.50;;
28180;SDS011;15464;50.988;10.318;2022-09-13T18:08:27;4.65;;;2.30;;
28180;SDS011;15464;50.988;10.318;2022-09-13T18:11:00;2.27;;;2.07;;
28180;SDS011;15464;50.988;10.318;2022-09-13T18:13:39;3.13;;;2.38;;
28180;SDS011;15464;50.988;10.318;2022-09-13T18:16:08;4.97;;;2.20;;
28180;SDS011;15464;50.988;10.318;2022-09-13T18:18:36;2.60;;;2.40;;
28180;SDS011;15464;50.988;10.318;2022-09-13T18:21:08;4.60;;;2.40;;
28180;SDS011;15464;50.988;10.318;2022-09-13T18:23:35;3.30;;;1.95;;
28180;SDS011;15464;50.988;10.318;2022-09-13T18:26:03;3.90;;;2.72;;
28180;SDS011;15464;50.988;10.318;2022-09-13T18:28:36;6.30;;;2.70;;
28180;SDS011;15464;50.988;10.318;2022-09-13T18:31:04;4.75;;;2.30;;
28180;SDS011;15464;50.988;10.318;2022-09-13T18:33:32;5.22;;;3.22;;
28180;SDS011;15464;50.988;10.318;2022-09-13T18:36:03;4.30;;;2.70;;
28180;SDS011;15464;50.988;10.318;2022-09-13T18:38:32;4.50;;;3.50;;
28180;SDS011;15464;50.988;10.318;2022-09-13T18:41:02;6.10;;;3.00;;
28180;SDS011;15464;50.988;10.318;2022-09-13T18:43:49;3.30;;;3.00;;
28180;SDS011;15464;50.988;10.318;2022-09-13T18:46:21;3.33;;;3.03;;
28180;SDS011;15464;50.988;10.318;2022-09-13T18:51:24;4.28;;;3.35;;